sensor_id;sensor_type;location;lat;lon;timestamp;pressure;altitude;pressure_sealevel;temperature;humidity
21623;BME280;10973;46.706;12.340;2023-04-26T00:01:33;86936.72;;;4.85;47.26
21623;BME280;10973;46.706;12.340;2023-04-26T00:04:01;86937.81;;;4.84;47.04
21623;BME280;10973;46.706;12.340;2023-04-26T00:06:28;86933.50;;;4.73;47.42
21623;BME280;10973;46.706;12.340;2023-04-26T00:08:55;86928.63;;;4.71;47.80
21623;BME280;10973;46.706;12.340;2023-04-26T00:11:23;86926.78;;;4.72;47.78
21623;BME280;10973;46.706;12.340;2023-04-26T00:13:50;86925.59;;;4.69;48.01
21623;BME280;10973;46.706;12.340;2023-04-26T00:16:18;86930.44;;;4.67;47.70
21623;BME280;10973;46.706;12.340;2023-04-26T00:18:45;86928.56;;;4.68;47.83
21623;BME280;10973;46.706;12.340;2023-04-26T00:21:13;86923.28;;;4.64;47.56
21623;BME280;10973;46.706;12.340;2023-04-26T00:23:40;86929.19;;;4.61;47.54
21623;BME280;10973;46.706;12.340;2023-04-26T00:26:07;86928.72;;;4.56;47.95
21623;BME280;10973;46.706;12.340;2023-04-26T00:28:35;86933.59;;;4.57;47.71
21623;BME280;10973;46.706;12.340;2023-04-26T00:31:02;86926.13;;;4.56;47.79
21623;BME280;10973;46.706;12.340;2023-04-26T00:33:29;86917.81;;;4.50;48.08
21623;BME280;10973;46.706;12.340;2023-04-26T00:35:56;86922.59;;;4.48;47.75
21623;BME280;10973;46.706;12.340;2023-04-26T00:38:24;86922.88;;;4.43;47.90
21623;BME280;10973;46.706;12.340;2023-04-26T00:40:51;86916.84;;;4.39;47.77
21623;BME280;10973;46.706;12.340;2023-04-26T00:43:18;86916.41;;;4.33;48.15
21623;BME280;10973;46.706;12.340;2023-04-26T00:45:46;86916.72;;;4.32;48.44
21623;BME280;10973;46.706;12.340;2023-04-26T00:48:15;86917.47;;;4.32;48.29
21623;BME280;10973;46.706;12.340;2023-04-26T00:50:42;86923.03;;;4.31;48.16
21623;BME280;10973;46.706;12.340;2023-04-26T00:53:11;86923.50;;;4.37;48.09
21623;BME280;10973;46.706;12.340;2023-04-26T00:55:40;86916.84;;;4.39;48.09
21623;BME280;10973;46.706;12.340;2023-04-26T00:58:08;86921.31;;;4.39;48.15
21623;BME280;10973;46.706;12.340;2023-04-26T01:00:35;86923.91;;;4.39;47.99
21623;BME280;10973;46.706;12.340;2023-04-26T01:03:03;86919.06;;;4.37;48.05
21623;BME280;10973;46.706;12.340;2023-04-26T01:05:30;86915.34;;;4.38;47.76
21623;BME280;10973;46.706;12.340;2023-04-26T01:07:59;86918.28;;;4.37;48.25
21623;BME280;10973;46.706;12.340;2023-04-26T01:10:27;86918.69;;;4.39;48.17
21623;BME280;10973;46.706;12.340;2023-04-26T01:12:55;86920.63;;;4.42;47.86
21623;BME280;10973;46.706;12.340;2023-04-26T01:15:25;86929.47;;;4.37;48.01
21623;BME280;10973;46.706;12.340;2023-04-26T01:17:52;86930.38;;;4.25;48.18
21623;BME280;10973;46.706;12.340;2023-04-26T01:20:19;86933.06;;;4.29;47.91
21623;BME280;10973;46.706;12.340;2023-04-26T01:22:47;86924.41;;;4.25;48.21
21623;BME280;10973;46.706;12.340;2023-04-26T01:25:15;86925.56;;;4.27;48.18
21623;BME280;10973;46.706;12.340;2023-04-26T01:27:42;86925.88;;;4.22;48.39
21623;BME280;10973;46.706;12.340;2023-04-26T01:30:11;86935.03;;;4.16;48.30
21623;BME280;10973;46.706;12.340;2023-04-26T01:32:38;86926.13;;;4.17;48.39
21623;BME280;10973;46.706;12.340;2023-04-26T01:35:06;86930.81;;;4.08;48.57
21623;BME280;10973;46.706;12.340;2023-04-26T01:37:33;86935.59;;;4.06;48.52
21623;BME280;10973;46.706;12.340;2023-04-26T01:40:00;86934.13;;;4.09;48.42
21623;BME280;10973;46.706;12.340;2023-04-26T01:42:28;86934.84;;;4.06;48.76
21623;BME280;10973;46.706;12.340;2023-04-26T01:44:55;86938.47;;;4.01;48.53
21623;BME280;10973;46.706;12.340;2023-04-26T01:47:23;86945.03;;;3.95;48.50
21623;BME280;10973;46.706;12.340;2023-04-26T01:49:50;86937.56;;;3.94;49.13
21623;BME280;10973;46.706;12.340;2023-04-26T01:52:17;86944.63;;;3.93;49.34
21623;BME280;10973;46.706;12.340;2023-04-26T01:54:44;86948.09;;;3.97;48.92
21623;BME280;10973;46.706;12.340;2023-04-26T01:57:12;86953.97;;;3.94;48.68
21623;BME280;10973;46.706;12.340;2023-04-26T01:59:39;86955.06;;;3.93;49.04
21623;BME280;10973;46.706;12.340;2023-04-26T02:02:06;86951.28;;;3.91;48.89
21623;BME280;10973;46.706;12.340;2023-04-26T02:04:34;86955.75;;;3.90;48.99
21623;BME280;10973;46.706;12.340;2023-04-26T02:07:02;86955.03;;;3.74;49.00
21623;BME280;10973;46.706;12.340;2023-04-26T02:09:29;86946.97;;;3.79;49.24
21623;BME280;10973;46.706;12.340;2023-04-26T02:11:56;86955.25;;;3.85;49.24
21623;BME280;10973;46.706;12.340;2023-04-26T02:14:24;86958.72;;;3.73;49.83
21623;BME280;10973;46.706;12.340;2023-04-26T02:16:51;86948.25;;;3.70;49.56
21623;BME280;10973;46.706;12.340;2023-04-26T02:19:18;86958.47;;;3.78;49.10
21623;BME280;10973;46.706;12.340;2023-04-26T02:21:56;86960.88;;;3.87;49.25
21623;BME280;10973;46.706;12.340;2023-04-26T02:24:24;86959.03;;;3.87;49.27
21623;BME280;10973;46.706;12.340;2023-04-26T02:26:52;86968.69;;;3.87;49.47
21623;BME280;10973;46.706;12.340;2023-04-26T02:29:19;86965.00;;;3.88;49.94
21623;BME280;10973;46.706;12.340;2023-04-26T02:31:57;86964.66;;;3.89;49.86
21623;BME280;10973;46.706;12.340;2023-04-26T02:34:24;86956.00;;;3.85;50.01
21623;BME280;10973;46.706;12.340;2023-04-26T02:36:52;86959.03;;;3.87;49.84
21623;BME280;10973;46.706;12.340;2023-04-26T02:39:19;86966.59;;;3.92;49.55
21623;BME280;10973;46.706;12.340;2023-04-26T02:41:46;86960.25;;;3.93;49.45
21623;BME280;10973;46.706;12.340;2023-04-26T02:44:13;86970.44;;;3.98;49.85
21623;BME280;10973;46.706;12.340;2023-04-26T02:46:41;86964.13;;;3.99;49.69
21623;BME280;10973;46.706;12.340;2023-04-26T02:49:08;86968.66;;;4.02;49.53
21623;BME280;10973;46.706;12.340;2023-04-26T02:51:36;86969.34;;;3.99;49.57
21623;BME280;10973;46.706;12.340;2023-04-26T02:54:03;86961.13;;;3.97;49.62
21623;BME280;10973;46.706;12.340;2023-04-26T02:56:33;86964.47;;;3.98;49.75
21623;BME280;10973;46.706;12.340;2023-04-26T02:59:00;86965.22;;;3.98;50.10
21623;BME280;10973;46.706;12.340;2023-04-26T03:01:27;86969.00;;;4.01;50.11
21623;BME280;10973;46.706;12.340;2023-04-26T03:03:55;86964.88;;;4.00;49.92
21623;BME280;10973;46.706;12.340;2023-04-26T03:06:22;86964.97;;;4.03;49.87
21623;BME280;10973;46.706;12.340;2023-04-26T03:08:49;86971.25;;;4.02;50.06
21623;BME280;10973;46.706;12.340;2023-04-26T03:11:17;86969.41;;;4.03;50.03
21623;BME280;10973;46.706;12.340;2023-04-26T03:13:44;86964.59;;;4.05;50.21
21623;BME280;10973;46.706;12.340;2023-04-26T03:16:11;86968.66;;;4.02;50.48
21623;BME280;10973;46.706;12.340;2023-04-26T03:18:39;86973.53;;;4.04;50.60
21623;BME280;10973;46.706;12.340;2023-04-26T03:21:06;86976.88;;;4.04;50.27
21623;BME280;10973;46.706;12.340;2023-04-26T03:23:34;86967.63;;;4.07;50.04
21623;BME280;10973;46.706;12.340;2023-04-26T03:26:01;86972.09;;;4.06;49.98
21623;BME280;10973;46.706;12.340;2023-04-26T03:28:29;86969.41;;;4.03;50.37
21623;BME280;10973;46.706;12.340;2023-04-26T03:30:58;86965.63;;;4.00;50.44
21623;BME280;10973;46.706;12.340;2023-04-26T03:33:25;86971.44;;;3.94;50.47
21623;BME280;10973;46.706;12.340;2023-04-26T03:35:53;86965.16;;;3.95;50.54
21623;BME280;10973;46.706;12.340;2023-04-26T03:38:20;86965.56;;;3.97;50.66
21623;BME280;10973;46.706;12.340;2023-04-26T03:40:48;86972.56;;;3.93;50.73
21623;BME280;10973;46.706;12.340;2023-04-26T03:43:15;86970.03;;;3.96;50.43
21623;BME280;10973;46.706;12.340;2023-04-26T03:45:46;86972.63;;;3.96;50.15
21623;BME280;10973;46.706;12.340;2023-04-26T03:48:14;86970.69;;;3.93;50.38
21623;BME280;10973;46.706;12.340;2023-04-26T03:50:42;86968.78;;;3.90;50.49
21623;BME280;10973;46.706;12.340;2023-04-26T03:53:11;86970.28;;;3.91;50.82
21623;BME280;10973;46.706;12.340;2023-04-26T03:55:41;86974.72;;;3.91;50.77
21623;BME280;10973;46.706;12.340;2023-04-26T03:58:08;86977.03;;;3.92;50.49
21623;BME280;10973;46.706;12.340;2023-04-26T04:00:40;86973.66;;;3.92;50.42
21623;BME280;10973;46.706;12.340;2023-04-26T04:03:07;86979.22;;;3.90;50.65
21623;BME280;10973;46.706;12.340;2023-04-26T04:05:35;86970.53;;;3.86;50.56
21623;BME280;10973;46.706;12.340;2023-04-26T04:08:03;86971.31;;;3.87;50.05
21623;BME280;10973;46.706;12.340;2023-04-26T04:10:30;86973.84;;;3.83;50.08
21623;BME280;10973;46.706;12.340;2023-04-26T04:12:58;86979.47;;;3.85;50.18
21623;BME280;10973;46.706;12.340;2023-04-26T04:15:25;86982.06;;;3.85;50.51
21623;BME280;10973;46.706;12.340;2023-04-26T04:17:53;86983.56;;;3.86;50.60
21623;BME280;10973;46.706;12.340;2023-04-26T04:20:20;86992.50;;;3.85;50.38
21623;BME280;10973;46.706;12.340;2023-04-26T04:22:48;86988.66;;;3.79;50.38
21623;BME280;10973;46.706;12.340;2023-04-26T04:25:15;86985.03;;;3.84;50.87
21623;BME280;10973;46.706;12.340;2023-04-26T04:27:42;86994.09;;;3.90;50.17
21623;BME280;10973;46.706;12.340;2023-04-26T04:30:10;86992.66;;;3.92;50.36
21623;BME280;10973;46.706;12.340;2023-04-26T04:32:37;86988.19;;;3.93;49.96
21623;BME280;10973;46.706;12.340;2023-04-26T04:35:06;86988.94;;;3.93;50.24
21623;BME280;10973;46.706;12.340;2023-04-26T04:37:33;86991.63;;;3.97;50.36
21623;BME280;10973;46.706;12.340;2023-04-26T04:40:00;86990.53;;;3.98;50.08
21623;BME280;10973;46.706;12.340;2023-04-26T04:42:28;86999.88;;;3.99;50.29
21623;BME280;10973;46.706;12.340;2023-04-26T04:44:55;86995.00;;;3.97;50.15
21623;BME280;10973;46.706;12.340;2023-04-26T04:47:23;87003.97;;;4.00;50.41
21623;BME280;10973;46.706;12.340;2023-04-26T04:49:50;86999.19;;;4.02;50.42
21623;BME280;10973;46.706;12.340;2023-04-26T04:52:17;87004.72;;;4.00;50.36
21623;BME280;10973;46.706;12.340;2023-04-26T04:54:45;87000.69;;;4.03;50.29
21623;BME280;10973;46.706;12.340;2023-04-26T04:57:12;87005.56;;;4.04;50.44
21623;BME280;10973;46.706;12.340;2023-04-26T04:59:40;87009.34;;;4.07;50.33
21623;BME280;10973;46.706;12.340;2023-04-26T05:02:07;87008.88;;;4.01;50.01
21623;BME280;10973;46.706;12.340;2023-04-26T05:04:36;87006.41;;;4.08;49.96
21623;BME280;10973;46.706;12.340;2023-04-26T05:07:04;87017.25;;;4.10;50.08
21623;BME280;10973;46.706;12.340;2023-04-26T05:09:31;87017.25;;;4.10;49.78
21623;BME280;10973;46.706;12.340;2023-04-26T05:11:58;87015.81;;;4.13;50.01
21623;BME280;10973;46.706;12.340;2023-04-26T05:14:26;87019.59;;;4.15;50.52
21623;BME280;10973;46.706;12.340;2023-04-26T05:16:53;87025.91;;;4.14;50.53
21623;BME280;10973;46.706;12.340;2023-04-26T05:19:21;87027.47;;;4.19;50.31
21623;BME280;10973;46.706;12.340;2023-04-26T05:21:48;87024.47;;;4.17;50.39
21623;BME280;10973;46.706;12.340;2023-04-26T05:24:15;87030.03;;;4.15;50.59
21623;BME280;10973;46.706;12.340;2023-04-26T05:26:43;87037.56;;;4.20;50.48
21623;BME280;10973;46.706;12.340;2023-04-26T05:29:10;87030.09;;;4.19;50.64
21623;BME280;10973;46.706;12.340;2023-04-26T05:31:37;87032.44;;;4.24;50.33
21623;BME280;10973;46.706;12.340;2023-04-26T05:34:05;87040.00;;;4.29;50.16
21623;BME280;10973;46.706;12.340;2023-04-26T05:36:32;87045.28;;;4.32;50.05
21623;BME280;10973;46.706;12.340;2023-04-26T05:38:59;87048.72;;;4.37;50.17
21623;BME280;10973;46.706;12.340;2023-04-26T05:41:27;87046.09;;;4.37;49.85
21623;BME280;10973;46.706;12.340;2023-04-26T05:43:54;87042.88;;;4.43;49.58
21623;BME280;10973;46.706;12.340;2023-04-26T05:46:21;87045.22;;;4.48;49.36
21623;BME280;10973;46.706;12.340;2023-04-26T05:48:49;87043.38;;;4.49;49.69
21623;BME280;10973;46.706;12.340;2023-04-26T05:51:16;87043.53;;;4.56;49.85
21623;BME280;10973;46.706;12.340;2023-04-26T05:53:43;87041.06;;;4.63;49.78
21623;BME280;10973;46.706;12.340;2023-04-26T05:56:11;87044.13;;;4.68;49.71
21623;BME280;10973;46.706;12.340;2023-04-26T05:58:38;87044.22;;;4.72;49.89
21623;BME280;10973;46.706;12.340;2023-04-26T06:01:05;87047.28;;;4.77;49.96
21623;BME280;10973;46.706;12.340;2023-04-26T06:03:32;87042.28;;;4.88;49.96
21623;BME280;10973;46.706;12.340;2023-04-26T06:06:00;87047.22;;;4.93;49.60
21623;BME280;10973;46.706;12.340;2023-04-26T06:08:28;87047.06;;;5.05;49.70
21623;BME280;10973;46.706;12.340;2023-04-26T06:10:55;87035.25;;;5.11;49.29
21623;BME280;10973;46.706;12.340;2023-04-26T06:13:23;87040.00;;;5.25;48.92
21623;BME280;10973;46.706;12.340;2023-04-26T06:15:53;87032.69;;;5.34;48.81
21623;BME280;10973;46.706;12.340;2023-04-26T06:18:20;87036.09;;;5.38;48.13
21623;BME280;10973;46.706;12.340;2023-04-26T06:20:48;87029.25;;;5.52;47.98
21623;BME280;10973;46.706;12.340;2023-04-26T06:23:15;87028.69;;;5.62;47.71
21623;BME280;10973;46.706;12.340;2023-04-26T06:25:42;87036.34;;;5.74;47.58
21623;BME280;10973;46.706;12.340;2023-04-26T06:28:11;87029.84;;;5.88;47.37
21623;BME280;10973;46.706;12.340;2023-04-26T06:30:39;87028.81;;;5.92;45.93
21623;BME280;10973;46.706;12.340;2023-04-26T06:33:06;87033.75;;;5.97;43.75
21623;BME280;10973;46.706;12.340;2023-04-26T06:35:41;87035.09;;;6.14;43.90
21623;BME280;10973;46.706;12.340;2023-04-26T06:38:09;87032.66;;;6.24;44.18
21623;BME280;10973;46.706;12.340;2023-04-26T06:40:36;87032.38;;;6.33;44.57
21623;BME280;10973;46.706;12.340;2023-04-26T06:43:03;87035.91;;;6.44;44.71
21623;BME280;10973;46.706;12.340;2023-04-26T06:45:31;87036.03;;;6.55;44.61
21623;BME280;10973;46.706;12.340;2023-04-26T06:47:58;87038.34;;;6.60;44.16
21623;BME280;10973;46.706;12.340;2023-04-26T06:50:26;87029.50;;;6.68;43.67
21623;BME280;10973;46.706;12.340;2023-04-26T06:52:54;87031.28;;;6.64;42.88
21623;BME280;10973;46.706;12.340;2023-04-26T06:55:21;87039.31;;;6.78;42.88
21623;BME280;10973;46.706;12.340;2023-04-26T06:57:49;87030.81;;;6.84;43.01
21623;BME280;10973;46.706;12.340;2023-04-26T07:00:16;87035.13;;;6.99;42.48
21623;BME280;10973;46.706;12.340;2023-04-26T07:02:44;87033.59;;;6.98;42.76
21623;BME280;10973;46.706;12.340;2023-04-26T07:05:12;87033.75;;;7.12;42.11
21623;BME280;10973;46.706;12.340;2023-04-26T07:07:39;87024.38;;;7.11;41.48
21623;BME280;10973;46.706;12.340;2023-04-26T07:10:08;87025.44;;;7.07;40.76
21623;BME280;10973;46.706;12.340;2023-04-26T07:12:36;87025.59;;;7.21;40.53
21623;BME280;10973;46.706;12.340;2023-04-26T07:15:04;87028.22;;;7.17;40.35
21623;BME280;10973;46.706;12.340;2023-04-26T07:17:32;87023.28;;;7.12;40.21
21623;BME280;10973;46.706;12.340;2023-04-26T07:19:59;87022.31;;;7.28;40.37
21623;BME280;10973;46.706;12.340;2023-04-26T07:22:27;87023.47;;;7.30;39.94
21623;BME280;10973;46.706;12.340;2023-04-26T07:24:54;87020.91;;;7.37;39.93
21623;BME280;10973;46.706;12.340;2023-04-26T07:27:22;87020.53;;;7.35;39.74
21623;BME280;10973;46.706;12.340;2023-04-26T07:29:53;87023.97;;;7.43;39.43
21623;BME280;10973;46.706;12.340;2023-04-26T07:32:21;87025.19;;;7.52;38.80
21623;BME280;10973;46.706;12.340;2023-04-26T07:34:48;87020.69;;;7.53;38.89
21623;BME280;10973;46.706;12.340;2023-04-26T07:37:15;87018.13;;;7.60;38.38
21623;BME280;10973;46.706;12.340;2023-04-26T07:39:43;87013.69;;;7.64;38.53
21623;BME280;10973;46.706;12.340;2023-04-26T07:42:10;87015.66;;;7.74;38.17
21623;BME280;10973;46.706;12.340;2023-04-26T07:44:38;87015.78;;;7.88;37.77
21623;BME280;10973;46.706;12.340;2023-04-26T07:47:11;87013.56;;;7.93;37.71
21623;BME280;10973;46.706;12.340;2023-04-26T07:49:39;87008.38;;;8.01;37.73
21623;BME280;10973;46.706;12.340;2023-04-26T07:52:08;87014.06;;;8.13;37.04
21623;BME280;10973;46.706;12.340;2023-04-26T07:54:35;87013.03;;;8.25;34.68
21623;BME280;10973;46.706;12.340;2023-04-26T07:57:03;87012.78;;;8.33;34.74
21623;BME280;10973;46.706;12.340;2023-04-26T07:59:31;87016.97;;;8.45;35.65
21623;BME280;10973;46.706;12.340;2023-04-26T08:01:58;87011.69;;;8.41;34.30
21623;BME280;10973;46.706;12.340;2023-04-26T08:04:33;87010.53;;;8.35;34.96
21623;BME280;10973;46.706;12.340;2023-04-26T08:07:01;87011.31;;;8.43;34.83
21623;BME280;10973;46.706;12.340;2023-04-26T08:09:29;87008.69;;;8.39;34.13
21623;BME280;10973;46.706;12.340;2023-04-26T08:11:56;87007.59;;;8.47;34.30
21623;BME280;10973;46.706;12.340;2023-04-26T08:14:24;87011.00;;;8.51;34.17
21623;BME280;10973;46.706;12.340;2023-04-26T08:16:51;87015.13;;;8.49;34.44
21623;BME280;10973;46.706;12.340;2023-04-26T08:19:18;87020.34;;;8.45;33.96
21623;BME280;10973;46.706;12.340;2023-04-26T08:21:46;87021.13;;;8.49;34.32
21623;BME280;10973;46.706;12.340;2023-04-26T08:24:13;87018.59;;;8.67;33.92
21623;BME280;10973;46.706;12.340;2023-04-26T08:26:40;87024.94;;;8.63;33.34
21623;BME280;10973;46.706;12.340;2023-04-26T08:29:08;87021.22;;;8.71;34.02
21623;BME280;10973;46.706;12.340;2023-04-26T08:31:36;87026.19;;;8.83;34.44
21623;BME280;10973;46.706;12.340;2023-04-26T08:34:03;87023.63;;;8.97;32.73
21623;BME280;10973;46.706;12.340;2023-04-26T08:36:30;87027.41;;;9.03;34.11
21623;BME280;10973;46.706;12.340;2023-04-26T08:39:02;87031.91;;;9.02;33.04
21623;BME280;10973;46.706;12.340;2023-04-26T08:41:36;87028.97;;;9.18;33.46
21623;BME280;10973;46.706;12.340;2023-04-26T08:44:07;87024.53;;;9.36;32.26
21623;BME280;10973;46.706;12.340;2023-04-26T08:47:29;87019.28;;;9.32;32.11
21623;BME280;10973;46.706;12.340;2023-04-26T08:50:04;87015.47;;;9.23;32.56
21623;BME280;10973;46.706;12.340;2023-04-26T08:52:32;87018.50;;;9.32;32.54
21623;BME280;10973;46.706;12.340;2023-04-26T08:55:03;87008.75;;;9.36;31.93
21623;BME280;10973;46.706;12.340;2023-04-26T08:57:31;87016.28;;;9.41;32.42
21623;BME280;10973;46.706;12.340;2023-04-26T09:00:01;87009.16;;;9.45;31.91
21623;BME280;10973;46.706;12.340;2023-04-26T09:02:29;87010.69;;;9.53;31.38
21623;BME280;10973;46.706;12.340;2023-04-26T09:04:57;87009.59;;;9.65;31.49
21623;BME280;10973;46.706;12.340;2023-04-26T09:07:49;87010.38;;;9.76;30.54
21623;BME280;10973;46.706;12.340;2023-04-26T09:10:20;87002.09;;;9.77;31.29
21623;BME280;10973;46.706;12.340;2023-04-26T09:12:52;87002.47;;;9.86;30.53
21623;BME280;10973;46.706;12.340;2023-04-26T09:15:21;87003.22;;;9.73;30.77
21623;BME280;10973;46.706;12.340;2023-04-26T09:17:49;87003.59;;;9.82;30.96
21623;BME280;10973;46.706;12.340;2023-04-26T09:20:30;87008.50;;;9.87;30.56
21623;BME280;10973;46.706;12.340;2023-04-26T09:23:06;86998.75;;;10.01;29.71
21623;BME280;10973;46.706;12.340;2023-04-26T09:25:34;86991.59;;;9.98;29.22
21623;BME280;10973;46.706;12.340;2023-04-26T09:28:04;86990.47;;;9.96;29.07
21623;BME280;10973;46.706;12.340;2023-04-26T09:30:45;87001.72;;;9.79;30.68
21623;BME280;10973;46.706;12.340;2023-04-26T09:33:13;86993.09;;;9.89;31.59
21623;BME280;10973;46.706;12.340;2023-04-26T09:35:43;86993.47;;;9.98;31.26
21623;BME280;10973;46.706;12.340;2023-04-26T09:38:13;86992.75;;;10.12;30.96
21623;BME280;10973;46.706;12.340;2023-04-26T09:40:44;86991.25;;;10.14;30.95
21623;BME280;10973;46.706;12.340;2023-04-26T09:43:17;86983.34;;;10.28;30.56
21623;BME280;10973;46.706;12.340;2023-04-26T09:48:32;86984.47;;;10.45;29.84
21623;BME280;10973;46.706;12.340;2023-04-26T09:53:40;86974.28;;;10.57;30.39
21623;BME280;10973;46.706;12.340;2023-04-26T09:56:19;86975.81;;;10.58;30.04
21623;BME280;10973;46.706;12.340;2023-04-26T10:01:15;86967.13;;;10.72;30.21
21623;BME280;10973;46.706;12.340;2023-04-26T10:03:44;86976.88;;;10.68;29.45
21623;BME280;10973;46.706;12.340;2023-04-26T10:06:12;86979.88;;;10.84;29.12
21623;BME280;10973;46.706;12.340;2023-04-26T10:08:40;86979.09;;;10.94;27.81
21623;BME280;10973;46.706;12.340;2023-04-26T10:11:07;86979.09;;;10.94;27.48
21623;BME280;10973;46.706;12.340;2023-04-26T10:13:36;86977.16;;;11.02;28.55
21623;BME280;10973;46.706;12.340;2023-04-26T10:16:04;86972.31;;;10.97;29.23
21623;BME280;10973;46.706;12.340;2023-04-26T10:18:32;86970.72;;;11.13;28.47
21623;BME280;10973;46.706;12.340;2023-04-26T10:21:15;86968.84;;;11.14;28.43
21623;BME280;10973;46.706;12.340;2023-04-26T10:23:47;86959.38;;;11.27;28.63
21623;BME280;10973;46.706;12.340;2023-04-26T10:26:53;86967.31;;;11.23;25.77
21623;BME280;10973;46.706;12.340;2023-04-26T10:29:23;86965.81;;;11.15;27.58
21623;BME280;10973;46.706;12.340;2023-04-26T10:34:30;86954.09;;;11.27;24.73
21623;BME280;10973;46.706;12.340;2023-04-26T10:37:16;86958.97;;;11.32;26.89
21623;BME280;10973;46.706;12.340;2023-04-26T10:39:45;86950.59;;;11.47;26.13
21623;BME280;10973;46.706;12.340;2023-04-26T10:42:27;86947.94;;;11.58;26.28
21623;BME280;10973;46.706;12.340;2023-04-26T10:44:57;86960.28;;;11.75;27.92
21623;BME280;10973;46.706;12.340;2023-04-26T10:47:33;86953.06;;;11.86;26.57
21623;BME280;10973;46.706;12.340;2023-04-26T10:52:33;86941.84;;;12.23;26.34
21623;BME280;10973;46.706;12.340;2023-04-26T10:55:01;86937.69;;;12.26;26.22
21623;BME280;10973;46.706;12.340;2023-04-26T10:57:51;86937.59;;;12.36;25.63
21623;BME280;10973;46.706;12.340;2023-04-26T11:00:25;86933.59;;;12.62;26.20
21623;BME280;10973;46.706;12.340;2023-04-26T11:03:01;86924.34;;;12.80;26.11
21623;BME280;10973;46.706;12.340;2023-04-26T11:05:50;86923.41;;;12.98;25.24
21623;BME280;10973;46.706;12.340;2023-04-26T11:08:29;86922.22;;;13.36;25.96
21623;BME280;10973;46.706;12.340;2023-04-26T11:11:10;86927.22;;;13.61;25.43
21623;BME280;10973;46.706;12.340;2023-04-26T11:13:40;86918.81;;;13.66;24.65
21623;BME280;10973;46.706;12.340;2023-04-26T11:16:10;86924.19;;;13.58;24.27
21623;BME280;10973;46.706;12.340;2023-04-26T11:18:46;86922.88;;;13.47;23.39
21623;BME280;10973;46.706;12.340;2023-04-26T11:21:13;86916.16;;;13.39;23.78
21623;BME280;10973;46.706;12.340;2023-04-26T11:23:41;86919.63;;;13.63;24.03
21623;BME280;10973;46.706;12.340;2023-04-26T11:26:08;86909.69;;;13.97;22.88
21623;BME280;10973;46.706;12.340;2023-04-26T11:28:40;86907.81;;;14.20;24.52
21623;BME280;10973;46.706;12.340;2023-04-26T11:31:08;86895.94;;;14.55;22.45
21623;BME280;10973;46.706;12.340;2023-04-26T11:33:36;86898.44;;;14.85;23.16
21623;BME280;10973;46.706;12.340;2023-04-26T11:36:04;86901.28;;;14.75;21.19
21623;BME280;10973;46.706;12.340;2023-04-26T11:38:31;86899.72;;;14.54;20.69
21623;BME280;10973;46.706;12.340;2023-04-26T11:41:03;86899.66;;;14.81;22.10
21623;BME280;10973;46.706;12.340;2023-04-26T11:43:38;86900.16;;;15.15;22.24
21623;BME280;10973;46.706;12.340;2023-04-26T11:46:07;86898.94;;;15.39;21.51
21623;BME280;10973;46.706;12.340;2023-04-26T11:48:36;86894.09;;;15.74;22.43
21623;BME280;10973;46.706;12.340;2023-04-26T11:51:05;86904.44;;;16.04;20.94
21623;BME280;10973;46.706;12.340;2023-04-26T11:53:43;86892.97;;;15.91;21.31
21623;BME280;10973;46.706;12.340;2023-04-26T11:56:15;86891.25;;;15.64;21.53
21623;BME280;10973;46.706;12.340;2023-04-26T11:58:46;86889.63;;;15.87;22.08
21623;BME280;10973;46.706;12.340;2023-04-26T12:01:26;86892.91;;;15.94;19.94
21623;BME280;10973;46.706;12.340;2023-04-26T12:03:56;86896.13;;;16.02;20.43
21623;BME280;10973;46.706;12.340;2023-04-26T12:06:40;86900.44;;;15.96;20.57
21623;BME280;10973;46.706;12.340;2023-04-26T12:09:08;86896.47;;;16.04;20.36
21623;BME280;10973;46.706;12.340;2023-04-26T12:11:36;86900.16;;;16.10;20.77
21623;BME280;10973;46.706;12.340;2023-04-26T12:14:04;86897.81;;;16.12;20.71
21623;BME280;10973;46.706;12.340;2023-04-26T12:16:35;86894.59;;;16.20;21.57
21623;BME280;10973;46.706;12.340;2023-04-26T12:19:06;86891.50;;;16.38;21.50
21623;BME280;10973;46.706;12.340;2023-04-26T12:21:41;86892.28;;;16.71;21.54
21623;BME280;10973;46.706;12.340;2023-04-26T12:24:22;86884.34;;;16.99;21.23
21623;BME280;10973;46.706;12.340;2023-04-26T12:26:50;86879.25;;;17.34;22.17
21623;BME280;10973;46.706;12.340;2023-04-26T12:29:18;86875.56;;;17.44;19.88
21623;BME280;10973;46.706;12.340;2023-04-26T12:31:46;86877.75;;;17.61;19.69
21623;BME280;10973;46.706;12.340;2023-04-26T12:34:13;86877.00;;;17.61;19.07
21623;BME280;10973;46.706;12.340;2023-04-26T12:36:41;86882.06;;;17.71;18.07
21623;BME280;10973;46.706;12.340;2023-04-26T12:39:10;86872.03;;;17.88;18.47
21623;BME280;10973;46.706;12.340;2023-04-26T12:41:38;86865.88;;;18.04;19.80
21623;BME280;10973;46.706;12.340;2023-04-26T12:44:07;86866.19;;;17.93;18.82
21623;BME280;10973;46.706;12.340;2023-04-26T12:46:35;86869.38;;;17.88;19.91
21623;BME280;10973;46.706;12.340;2023-04-26T12:49:03;86868.19;;;17.76;20.09
21623;BME280;10973;46.706;12.340;2023-04-26T12:51:31;86873.00;;;17.69;19.67
21623;BME280;10973;46.706;12.340;2023-04-26T12:53:58;86867.88;;;17.74;19.06
21623;BME280;10973;46.706;12.340;2023-04-26T12:56:25;86872.34;;;17.77;19.63
21623;BME280;10973;46.706;12.340;2023-04-26T12:58:53;86865.56;;;17.89;18.79
21623;BME280;10973;46.706;12.340;2023-04-26T13:01:20;86871.41;;;17.84;19.80
21623;BME280;10973;46.706;12.340;2023-04-26T13:03:48;86866.09;;;17.97;19.21
21623;BME280;10973;46.706;12.340;2023-04-26T13:06:16;86865.91;;;18.16;19.46
21623;BME280;10973;46.706;12.340;2023-04-26T13:08:43;86867.38;;;18.17;19.46
21623;BME280;10973;46.706;12.340;2023-04-26T13:11:10;86863.31;;;18.13;18.86
21623;BME280;10973;46.706;12.340;2023-04-26T13:13:38;86859.59;;;18.10;18.94
21623;BME280;10973;46.706;12.340;2023-04-26T13:16:10;86860.34;;;18.23;19.20
21623;BME280;10973;46.706;12.340;2023-04-26T13:18:39;86863.31;;;18.13;17.78
21623;BME280;10973;46.706;12.340;2023-04-26T13:21:07;86861.91;;;17.70;18.24